Flight Track Log - Related Links

Times and Time Zones

All times are in EDT time to prevent confusion due to time zone crossing. See the DAL752 flight status page for this flight to view local times or setup timezone preferences in your user account.

Time Position Orientation Groundspeed Altitude Reporting Facility
EDT Latitude Longitude Course Direction KTS MPH feet Rate Location/Type
Fri 09:23:09 PM 44.9167 -93.2333 117° Southeast 165 190 2,500  Level Minneapolis TRACON
Fri 09:23:40 PM 44.9411 -93.2336 360° North 174 200 3,000 2,452 Climbing Minneapolis Center
Fri 09:24:42 PM 45.0069 -93.2325 North 229 264 6,300 2,661 Climbing Minneapolis Center
Fri 09:25:00 PM 44.7786 -92.7535 109° East  Level Estimated
Fri 09:25:44 PM 45.0556 -93.1767 39° Northeast 259 298 8,500  Level Minneapolis Center
Fri 09:26:00 PM 44.7437 -92.5978 115° Southeast  Level Estimated
Fri 09:26:46 PM 45.0142 -93.0797 121° Southeast 289 333 10,800  Level Minneapolis Center
Fri 09:27:00 PM 44.7086 -92.4423 125° Southeast  Level Estimated
Fri 09:27:48 PM 44.9419 -92.9447 127° Southeast 360 414 12,900  Level Minneapolis Center
Fri 09:28:00 PM 44.6732 -92.2869 117° Southeast  Level Estimated
Fri 09:28:49 PM 44.8778 -92.8206 126° Southeast 389 448 15,200  Level Minneapolis Center
Fri 09:29:51 PM 44.8114 -92.6944 127° Southeast 397 457 17,700 2,081 Climbing Minneapolis Center
Fri 09:30:53 PM 44.7428 -92.5636 126° Southeast 409 471 19,500 1,887 Climbing Minneapolis Center
Fri 09:31:55 PM 44.6736 -92.4317 126° Southeast 414 476 21,600 1,839 Climbing Minneapolis Center
Fri 09:32:57 PM 44.6042 -92.2983 126° Southeast 419 482 23,300 1,452 Climbing Minneapolis Center
Fri 09:33:59 PM 44.5303 -92.1606 127° Southeast 437 503 24,600 829 Climbing Minneapolis Center
Fri 09:35:00 PM 44.4592 -92.0208 125° Southeast 440 506 25,000 683 Climbing Minneapolis Center
Fri 09:36:02 PM 44.3714 -91.8539 126° Southeast 442 509 26,000 968 Climbing Minneapolis Center
Fri 09:37:04 PM 44.3111 -91.6925 118° Southeast 467 537 27,000 1,024 Climbing Minneapolis Center
Fri 09:38:05 PM 44.2469 -91.5286 119° Southeast 475 547 28,100 1,220 Climbing Minneapolis Center
Fri 09:39:07 PM 44.1850 -91.3636 118° Southeast 481 554 29,500 1,258 Climbing Minneapolis Center
Fri 09:40:09 PM 44.1147 -91.1842 119° Southeast 481 554 30,700 1,210 Climbing Minneapolis Center
Fri 09:41:11 PM 44.0522 -91.0200 118° Southeast 481 554 32,000 1,122 Climbing Minneapolis Center
Fri 09:42:12 PM 43.9878 -90.8583 119° Southeast 481 554 33,000 488 Climbing Minneapolis Center
Fri 09:43:14 PM 43.9264 -90.6967 118° Southeast 478 550 33,000  Level Minneapolis Center
Fri 09:44:16 PM 43.8858 -90.5139 107° East 493 567 33,000  Level Minneapolis Center
Fri 09:45:06 PM 43.8633 -90.3725 102° East 495 570 33,000  Level Chicago Center
Fri 09:46:08 PM 43.8283 -90.1764 104° East 498 573 33,000  Level Chicago Center
Fri 09:47:10 PM 43.7886 -89.9522 104° East 499 574 33,000  Level Chicago Center
Fri 09:48:11 PM 43.7542 -89.7667 104° East 500 575 33,000  Level Chicago Center
Fri 09:49:13 PM 43.7197 -89.5814 104° East 500 575 33,000  Level Chicago Center
Fri 09:50:14 PM 43.6850 -89.3958 104° East 500 575 33,000  Level Chicago Center
Fri 09:51:16 PM 43.6500 -89.2097 105° East 501 577 33,000  Level Chicago Center
Fri 09:52:17 PM 43.6136 -89.0225 105° East 502 578 33,000  Level Chicago Center
Fri 09:53:19 PM 43.5767 -88.8342 105° East 508 585 33,000  Level Chicago Center
Fri 09:54:21 PM 43.5397 -88.6467 105° East 509 586 33,000  Level Chicago Center
Fri 09:55:22 PM 43.4933 -88.4217 106° East 533 613 33,000 -195 Level Chicago Center
Fri 09:56:24 PM 43.4622 -88.2506 104° East 509 586 32,600 -732 Descending Chicago Center
Fri 09:57:25 PM 43.4161 -88.0231 106° East 514 592 31,500 -1,024 Descending Chicago Center
Fri 09:58:27 PM 43.3778 -87.8308 105° East 519 597 30,500 -976 Descending Chicago Center
Fri 09:59:28 PM 43.3378 -87.6394 106° East 523 602 29,500 -927 Descending Chicago Center
Fri 10:00:30 PM 43.2992 -87.4483 105° East 521 600 28,600 -968 Descending Chicago Center
Fri 10:01:32 PM 43.2553 -87.2431 106° East 522 601 27,500 -1,561 Descending Chicago Center
Fri 10:02:33 PM 43.2175 -87.0578 106° East 507 583 25,400 -2,244 Descending Chicago Center
Fri 10:03:35 PM 43.1806 -86.8764 106° East 488 562 22,900 -2,341 Descending Chicago Center
Fri 10:04:36 PM 43.1453 -86.7111 106° East 468 539 20,600 -2,293 Descending Chicago Center
Fri 10:05:38 PM 43.1108 -86.5539 107° East 441 507 18,200 -2,293 Descending Chicago Center
Fri 10:06:39 PM 43.0775 -86.4008 107° East 426 490 15,900 -2,293 Descending Chicago Center
Fri 10:07:41 PM 43.0453 -86.2547 107° East 406 467 13,500 -2,341 Descending Chicago Center
Fri 10:08:42 PM 43.0114 -86.1017 107° East 351 404 11,100 -2,098 Descending Chicago Center
Fri 10:09:44 PM 43.0014 -85.9933 97° East 297 342 9,200 -1,854 Descending Chicago Center
Fri 10:10:45 PM 42.9989 -85.8858 92° East 295 339 7,300 -1,707 Descending Chicago Center
Fri 10:11:47 PM 42.9944 -85.7833 93° East 282 325 5,700 -1,073 Descending Chicago Center
Fri 10:12:48 PM 42.9894 -85.6856 94° East 264 304 5,100 -341 Descending Chicago Center
Fri 10:13:50 PM 42.9831 -85.5778 95° East 244 281 5,000 -585 Descending Chicago Center
Fri 10:14:51 PM 42.9772 -85.4883 95° East 243 280 3,900 -927 Descending Chicago Center
Fri 10:15:53 PM 42.9694 -85.4003 97° East 241 277 3,100 -390 Descending Chicago Center
Fri 10:16:54 PM 42.9619 -85.3139 97° East 235 270 3,100  Level Chicago Center
Fri 10:17:56 PM 42.9125 -85.2758 151° Southeast 230 265 3,100  Level Chicago Center
Fri 10:18:57 PM 42.8992 -85.3369 253° West 211 243 3,100 -295 Level Chicago Center
Fri 10:19:58 PM 42.8925 -85.4028 262° West 186 214 2,500 -732 Descending Chicago Center
Fri 10:21:00 PM 42.8856 -85.4600 261° West 170 196 1,600 -732 Descending Chicago Center
Fri 10:22:01 PM 42.8786 -85.5169 261° West 154 177 1,000 -590 Descending Chicago Center

Login

Don't have an account? Register now (free) for customized features, flight alerts, and more!